createdAt,value
2023-03-12T00:01:40.028Z,7.12
2023-03-12T00:04:08.080Z,7.18
2023-03-12T00:06:36.085Z,7.09
2023-03-12T00:09:04.799Z,7.07
2023-03-12T00:11:32.765Z,7.08
2023-03-12T00:14:01.281Z,7.05
2023-03-12T00:16:29.703Z,7.01
2023-03-12T00:18:59.065Z,7.07
2023-03-12T00:21:27.051Z,6.97
2023-03-12T00:23:54.974Z,6.97
2023-03-12T00:26:23.102Z,6.92
2023-03-12T00:28:51.153Z,6.92
2023-03-12T00:31:20.083Z,6.91
2023-03-12T00:33:49.465Z,6.82
2023-03-12T00:36:19.004Z,6.57
2023-03-12T00:38:46.916Z,6.85
2023-03-12T00:41:14.950Z,6.86
2023-03-12T00:43:42.909Z,6.80
2023-03-12T00:46:10.923Z,6.77
2023-03-12T00:48:38.861Z,6.76
2023-03-12T00:51:06.970Z,6.86
2023-03-12T00:53:36.359Z,6.82
2023-03-12T00:56:04.448Z,6.78
2023-03-12T00:58:32.435Z,6.71
2023-03-12T01:01:00.403Z,6.72
2023-03-12T01:03:28.377Z,6.68
2023-03-12T01:05:56.343Z,6.62
2023-03-12T01:08:24.536Z,6.66
2023-03-12T01:10:53.868Z,6.64
2023-03-12T01:13:21.846Z,6.61
2023-03-12T01:15:49.809Z,6.62
2023-03-12T01:18:17.735Z,6.65
2023-03-12T01:20:45.677Z,6.64
2023-03-12T01:23:13.641Z,6.69
2023-03-12T01:25:42.070Z,6.59
2023-03-12T01:28:11.449Z,6.53
2023-03-12T01:30:39.434Z,6.58
2023-03-12T01:33:07.339Z,6.56
2023-03-12T01:35:37.840Z,6.60
2023-03-12T01:38:06.073Z,6.56
2023-03-12T01:40:34.501Z,6.49
2023-03-12T01:43:18.002Z,6.58
2023-03-12T01:46:03.929Z,6.56
2023-03-12T01:48:34.834Z,6.54
2023-03-12T01:51:02.752Z,6.50
2023-03-12T01:53:30.715Z,6.45
2023-03-12T01:55:59.331Z,6.45
2023-03-12T01:58:27.647Z,6.47
2023-03-12T02:00:57.419Z,6.34
2023-03-12T02:03:25.407Z,6.37
2023-03-12T02:05:54.813Z,6.15
2023-03-12T02:08:22.778Z,6.32
2023-03-12T02:10:50.712Z,6.25
2023-03-12T02:13:18.742Z,6.20
2023-03-12T02:15:46.692Z,6.20
2023-03-12T02:18:18.872Z,6.16
2023-03-12T02:20:50.870Z,6.06
2023-03-12T02:23:22.532Z,6.02
2023-03-12T02:25:52.858Z,5.92
2023-03-12T02:28:21.990Z,5.84
2023-03-12T02:30:50.922Z,5.89
2023-03-12T02:33:18.872Z,5.77
2023-03-12T02:35:47.410Z,5.67
2023-03-12T02:38:35.110Z,5.67
2023-03-12T02:41:06.028Z,5.57
2023-03-12T02:43:33.947Z,5.45
2023-03-12T02:46:01.995Z,5.44
2023-03-12T02:48:29.954Z,5.43
2023-03-12T02:50:57.875Z,5.37
2023-03-12T02:53:25.795Z,5.38
2023-03-12T02:55:53.726Z,5.35
2023-03-12T02:58:23.043Z,5.28
2023-03-12T03:00:50.971Z,5.23
2023-03-12T03:03:18.889Z,5.20
2023-03-12T03:05:46.844Z,5.12
2023-03-12T03:08:14.786Z,5.13
2023-03-12T03:10:42.777Z,5.14
2023-03-12T03:13:10.721Z,5.00
2023-03-12T03:15:40.688Z,5.05
2023-03-12T03:18:08.639Z,5.06
2023-03-12T03:20:36.577Z,5.04
2023-03-12T03:23:04.630Z,5.04
2023-03-12T03:25:32.819Z,5.00
2023-03-12T03:28:00.783Z,4.94
2023-03-12T03:30:28.728Z,4.87
2023-03-12T03:32:58.063Z,4.91
2023-03-12T03:35:26.072Z,4.93
2023-03-12T03:37:54.003Z,4.84
2023-03-12T03:40:22.173Z,4.90
2023-03-12T03:42:50.076Z,4.81
2023-03-12T03:45:19.530Z,4.84
2023-03-12T03:47:47.503Z,4.77
2023-03-12T03:50:17.030Z,4.68
2023-03-12T03:52:45.013Z,4.62
2023-03-12T03:55:12.987Z,4.60
2023-03-12T03:57:40.892Z,4.61
2023-03-12T04:00:13.159Z,4.55
2023-03-12T04:02:41.120Z,4.52
2023-03-12T04:05:10.045Z,4.59
2023-03-12T04:07:39.373Z,4.52
2023-03-12T04:10:08.176Z,4.39
2023-03-12T04:12:36.086Z,4.60
2023-03-12T04:15:04.171Z,4.46
2023-03-12T04:17:32.133Z,4.38
2023-03-12T04:20:00.046Z,4.47
2023-03-12T04:22:28.037Z,4.39
2023-03-12T04:24:57.439Z,4.44
2023-03-12T04:27:25.408Z,4.40
2023-03-12T04:29:53.349Z,4.47
2023-03-12T04:32:21.407Z,4.42
2023-03-12T04:34:49.378Z,4.44
2023-03-12T04:37:17.325Z,4.41
2023-03-12T04:39:45.425Z,4.39
2023-03-12T04:42:14.750Z,4.43
2023-03-12T04:44:42.720Z,4.41
2023-03-12T04:47:10.628Z,4.40
2023-03-12T04:49:39.393Z,4.46
2023-03-12T04:52:07.906Z,4.56
2023-03-12T04:54:35.872Z,4.67
2023-03-12T04:57:03.870Z,4.52
2023-03-12T04:59:33.208Z,4.88
2023-03-12T05:02:01.441Z,4.92
2023-03-12T05:04:30.841Z,5.00
2023-03-12T05:06:59.812Z,5.33
2023-03-12T05:09:27.796Z,6.36
2023-03-12T05:11:55.732Z,7.31
2023-03-12T05:14:23.799Z,8.21
2023-03-12T05:16:53.165Z,8.73
2023-03-12T05:19:21.130Z,9.23
2023-03-12T05:21:49.052Z,9.51
2023-03-12T05:24:17.095Z,9.05
2023-03-12T05:26:45.096Z,9.35
2023-03-12T05:29:13.123Z,9.50
2023-03-12T05:31:41.222Z,9.58
2023-03-12T05:34:12.426Z,9.09
2023-03-12T05:36:40.474Z,8.26
2023-03-12T05:39:08.436Z,7.66
2023-03-12T05:41:36.430Z,7.61
2023-03-12T05:44:04.355Z,7.45
2023-03-12T05:46:32.302Z,7.49
2023-03-12T05:49:00.233Z,7.75
2023-03-12T05:51:29.543Z,7.75
2023-03-12T05:53:57.464Z,7.75
2023-03-12T05:56:25.409Z,7.95
2023-03-12T05:58:53.367Z,7.83
2023-03-12T06:01:22.591Z,7.79
2023-03-12T06:03:50.632Z,8.05
2023-03-12T06:06:18.600Z,8.13
2023-03-12T06:08:48.017Z,8.32
2023-03-12T06:11:15.947Z,8.80
2023-03-12T06:13:43.893Z,9.10
2023-03-12T06:16:16.137Z,8.75
2023-03-12T06:18:44.217Z,8.66
2023-03-12T06:21:12.604Z,8.79
2023-03-12T06:23:40.551Z,9.06
2023-03-12T06:26:09.882Z,9.10
2023-03-12T06:28:37.808Z,8.42
2023-03-12T06:31:06.133Z,8.38
2023-03-12T06:33:34.168Z,8.57
2023-03-12T06:36:03.371Z,8.59
2023-03-12T06:38:31.317Z,8.64
2023-03-12T06:41:00.093Z,9.19
2023-03-12T06:43:30.291Z,9.62
2023-03-12T06:45:59.019Z,9.52
2023-03-12T06:48:27.440Z,9.29
2023-03-12T06:50:55.372Z,10.12
2023-03-12T06:53:23.501Z,10.83
2023-03-12T06:55:51.649Z,10.63
2023-03-12T06:58:19.617Z,10.22
2023-03-12T07:00:48.968Z,10.29
2023-03-12T07:03:16.940Z,9.42
2023-03-12T07:05:45.587Z,9.27
2023-03-12T07:08:13.593Z,9.32
2023-03-12T07:10:41.589Z,9.60
2023-03-12T07:13:09.568Z,9.47
2023-03-12T07:15:37.531Z,9.64
2023-03-12T07:18:07.281Z,9.45
2023-03-12T07:20:35.237Z,9.24
2023-03-12T07:23:03.185Z,9.23
2023-03-12T07:25:31.171Z,9.39
2023-03-12T07:27:59.106Z,9.45
2023-03-12T07:30:27.003Z,9.02
2023-03-12T07:32:54.962Z,9.18
2023-03-12T07:35:24.419Z,9.54
2023-03-12T07:37:52.437Z,9.55
2023-03-12T07:40:20.677Z,9.05
2023-03-12T07:42:49.212Z,9.21
2023-03-12T07:45:17.366Z,9.08
2023-03-12T07:47:45.850Z,9.29
2023-03-12T07:50:14.004Z,9.66
2023-03-12T07:52:43.367Z,9.74
2023-03-12T07:55:11.932Z,10.21
2023-03-12T07:57:40.146Z,10.02
2023-03-12T08:00:10.554Z,10.70
2023-03-12T08:02:38.669Z,11.24
2023-03-12T08:05:07.321Z,10.89
2023-03-12T08:07:35.798Z,10.33
2023-03-12T08:10:06.865Z,10.50
2023-03-12T08:12:34.799Z,10.81
2023-03-12T08:15:02.779Z,10.62
2023-03-12T08:17:30.706Z,10.60
2023-03-12T08:19:58.657Z,11.05
2023-03-12T08:22:26.715Z,10.78
2023-03-12T08:24:54.705Z,10.52
2023-03-12T08:27:24.009Z,10.62
2023-03-12T08:29:51.994Z,10.84
2023-03-12T08:32:20.061Z,11.10
2023-03-12T08:34:48.158Z,10.70
2023-03-12T08:37:16.245Z,10.68
2023-03-12T08:39:44.211Z,10.77
2023-03-12T08:42:12.141Z,10.94
2023-03-12T08:44:41.462Z,11.24
2023-03-12T08:47:09.420Z,11.61
2023-03-12T08:49:37.355Z,11.85
2023-03-12T08:52:05.733Z,12.21
2023-03-12T08:54:34.818Z,12.73
2023-03-12T08:57:02.821Z,12.61
2023-03-12T08:59:30.730Z,12.36
2023-03-12T09:02:00.034Z,12.34
2023-03-12T09:04:28.163Z,12.38
2023-03-12T09:06:56.147Z,12.16
2023-03-12T09:09:24.100Z,11.70
2023-03-12T09:11:52.000Z,11.53
2023-03-12T09:15:00.931Z,11.96
2023-03-12T09:17:09.312Z,12.62
2023-03-12T09:19:37.248Z,13.35
2023-03-12T09:22:05.219Z,13.99
2023-03-12T09:24:33.180Z,14.62
2023-03-12T09:27:01.112Z,14.43
2023-03-12T09:29:29.082Z,14.69
2023-03-12T09:31:57.068Z,14.28
2023-03-12T09:34:26.340Z,14.20
2023-03-12T09:36:54.338Z,14.65
2023-03-12T09:39:22.785Z,14.63
2023-03-12T09:41:50.925Z,13.59
2023-03-12T09:44:21.523Z,13.54
2023-03-12T09:46:51.217Z,13.03
2023-03-12T09:49:22.517Z,13.05
2023-03-12T09:51:54.155Z,13.00
2023-03-12T09:54:25.126Z,13.28
2023-03-12T09:56:53.041Z,13.24
2023-03-12T09:59:21.007Z,13.36
2023-03-12T10:01:50.484Z,12.64
2023-03-12T10:04:58.205Z,12.75
2023-03-12T10:07:30.785Z,11.88
2023-03-12T10:10:34.310Z,11.93
2023-03-12T10:13:23.175Z,12.33
2023-03-12T10:15:58.073Z,11.97
2023-03-12T10:18:32.278Z,11.63
2023-03-12T10:21:06.387Z,11.62
2023-03-12T10:23:42.535Z,11.85
2023-03-12T10:26:12.282Z,12.18
2023-03-12T10:28:42.408Z,12.70
2023-03-12T10:31:15.489Z,12.49
2023-03-12T10:33:46.047Z,12.45
2023-03-12T10:36:16.979Z,12.56
2023-03-12T10:38:48.520Z,12.71
2023-03-12T10:41:17.540Z,13.23
2023-03-12T10:43:45.489Z,13.32
2023-03-12T10:46:42.060Z,13.04
2023-03-12T10:49:40.025Z,13.45
2023-03-12T10:52:11.955Z,13.75
2023-03-12T10:54:43.686Z,13.72
2023-03-12T10:57:11.926Z,14.33
2023-03-12T10:59:43.095Z,14.22
2023-03-12T11:02:32.585Z,14.07
2023-03-12T11:05:00.738Z,13.68
2023-03-12T11:07:29.752Z,13.99
2023-03-12T11:10:23.174Z,13.68
2023-03-12T11:12:59.918Z,14.03
2023-03-12T11:15:29.193Z,13.65
2023-03-12T11:18:27.243Z,12.86
2023-03-12T11:20:56.559Z,12.91
2023-03-12T11:23:26.810Z,12.99
2023-03-12T11:25:57.962Z,13.41
2023-03-12T11:28:29.529Z,13.44
2023-03-12T11:30:58.553Z,13.64
2023-03-12T11:33:26.588Z,13.76
2023-03-12T11:36:10.227Z,13.48
2023-03-12T11:38:40.938Z,13.31
2023-03-12T11:41:22.517Z,13.62
2023-03-12T11:43:58.808Z,14.25
2023-03-12T11:46:31.915Z,14.64
2023-03-12T11:49:07.079Z,15.96
2023-03-12T11:51:39.865Z,16.27
2023-03-12T11:54:21.986Z,16.93
2023-03-12T11:56:53.087Z,16.04
2023-03-12T11:59:40.113Z,16.05
2023-03-12T12:02:22.019Z,18.05
2023-03-12T12:05:05.972Z,18.52
2023-03-12T12:07:41.148Z,17.02
2023-03-12T12:10:11.474Z,17.14
2023-03-12T12:12:48.395Z,16.94
2023-03-12T12:15:21.309Z,18.55
2023-03-12T12:17:57.065Z,20.17
2023-03-12T12:20:40.589Z,19.32
2023-03-12T12:23:16.698Z,17.53
2023-03-12T12:25:52.808Z,16.22
2023-03-12T12:28:54.132Z,15.87
2023-03-12T12:31:32.307Z,17.32
2023-03-12T12:34:11.311Z,16.89
2023-03-12T12:36:39.348Z,15.28
2023-03-12T12:39:11.326Z,14.42
2023-03-12T12:41:39.773Z,13.87
2023-03-12T12:44:12.419Z,13.27
2023-03-12T12:46:41.084Z,13.13
2023-03-12T12:49:11.455Z,13.03
2023-03-12T12:51:41.559Z,12.67
2023-03-12T12:54:12.912Z,12.59
2023-03-12T12:56:42.677Z,12.54
2023-03-12T12:59:36.397Z,12.59
2023-03-12T13:02:04.797Z,12.24
2023-03-12T13:04:34.449Z,12.09
2023-03-12T13:07:04.091Z,12.16
2023-03-12T13:09:40.132Z,12.47
2023-03-12T13:12:10.064Z,12.85
2023-03-12T13:14:40.550Z,13.15
2023-03-12T13:17:31.420Z,13.31
2023-03-12T13:20:02.072Z,13.55
2023-03-12T13:22:46.117Z,13.58
2023-03-12T13:25:26.076Z,13.46
2023-03-12T13:27:59.000Z,13.41
2023-03-12T13:30:49.972Z,13.25
2023-03-12T13:33:18.366Z,12.98
2023-03-12T13:35:49.799Z,12.71
2023-03-12T13:38:19.972Z,12.66
2023-03-12T13:41:00.886Z,12.34
2023-03-12T13:43:52.021Z,12.14
2023-03-12T13:46:38.270Z,12.10
2023-03-12T13:49:19.759Z,12.11
2023-03-12T13:52:00.365Z,11.74
2023-03-12T13:54:33.877Z,11.92
2023-03-12T13:57:03.647Z,11.80
2023-03-12T13:59:31.779Z,11.85
2023-03-12T14:02:04.831Z,11.97
2023-03-12T14:04:36.019Z,12.07
2023-03-12T14:07:31.503Z,11.84
2023-03-12T14:10:08.323Z,11.83
2023-03-12T14:12:40.037Z,11.99
2023-03-12T14:15:19.814Z,11.98
2023-03-12T14:17:49.483Z,11.85
2023-03-12T14:20:18.832Z,11.95
2023-03-12T14:22:49.880Z,12.02
2023-03-12T14:25:19.036Z,11.97
2023-03-12T14:27:47.184Z,11.83
2023-03-12T14:30:20.533Z,11.67
2023-03-12T14:32:49.887Z,11.67
2023-03-12T14:35:20.234Z,11.40
2023-03-12T14:37:50.785Z,11.05
2023-03-12T14:40:23.891Z,11.09
2023-03-12T14:42:51.802Z,11.02
2023-03-12T14:45:24.220Z,10.89
2023-03-12T14:47:55.948Z,10.98
2023-03-12T14:50:25.299Z,10.92
2023-03-12T14:52:53.341Z,10.81
2023-03-12T14:55:22.545Z,10.88
2023-03-12T14:57:50.711Z,10.79
2023-03-12T15:00:25.604Z,10.83
2023-03-12T15:02:55.870Z,10.94
2023-03-12T15:05:23.824Z,10.85
2023-03-12T15:07:52.491Z,10.65
2023-03-12T15:10:23.128Z,10.60
2023-03-12T15:12:51.287Z,10.66
2023-03-12T15:15:30.955Z,10.65
2023-03-12T15:18:00.253Z,10.57
2023-03-12T15:20:28.198Z,10.47
2023-03-12T15:22:56.164Z,10.48
2023-03-12T15:25:25.209Z,10.35
2023-03-12T15:28:03.513Z,10.10
2023-03-12T15:30:31.755Z,10.17
2023-03-12T15:33:09.053Z,10.12
2023-03-12T15:35:38.072Z,10.18
2023-03-12T15:38:06.156Z,10.18
2023-03-12T15:40:34.094Z,10.13
2023-03-12T15:43:03.615Z,10.19
2023-03-12T15:45:37.371Z,10.17
2023-03-12T15:48:16.318Z,10.14
2023-03-12T15:50:44.675Z,10.05
2023-03-12T15:53:26.720Z,9.90
2023-03-12T15:56:00.151Z,9.83
2023-03-12T15:58:29.812Z,9.83
2023-03-12T16:01:07.617Z,9.88
2023-03-12T16:03:37.669Z,9.81
2023-03-12T16:06:06.086Z,9.86
2023-03-12T16:08:37.894Z,9.80
2023-03-12T16:11:06.153Z,9.79
2023-03-12T16:13:34.132Z,9.87
2023-03-12T16:16:02.380Z,9.85
2023-03-12T16:18:30.373Z,9.74
2023-03-12T16:20:59.677Z,9.73
2023-03-12T16:23:27.647Z,9.76
2023-03-12T16:25:55.793Z,9.69
2023-03-12T16:28:23.788Z,9.66
2023-03-12T16:30:51.865Z,9.70
2023-03-12T16:33:20.871Z,9.62
2023-03-12T16:35:49.006Z,9.68
2023-03-12T16:38:18.373Z,9.72
2023-03-12T16:40:47.532Z,9.64
2023-03-12T16:43:16.842Z,9.59
2023-03-12T16:45:45.527Z,9.49
2023-03-12T16:48:15.438Z,9.51
2023-03-12T16:50:47.045Z,9.57
2023-03-12T16:53:14.973Z,9.58
2023-03-12T16:55:48.920Z,9.49
2023-03-12T16:58:17.567Z,9.44
2023-03-12T17:00:45.614Z,9.57
2023-03-12T17:03:19.477Z,9.57
2023-03-12T17:05:47.431Z,9.58
2023-03-12T17:08:15.562Z,9.58
2023-03-12T17:10:43.555Z,9.52
2023-03-12T17:13:19.515Z,9.44
2023-03-12T17:15:47.515Z,9.49
2023-03-12T17:18:15.548Z,9.41
2023-03-12T17:20:43.472Z,9.38
2023-03-12T17:23:11.520Z,9.38
2023-03-12T17:25:40.397Z,9.30
2023-03-12T17:28:08.570Z,9.35
2023-03-12T17:30:37.984Z,9.37
2023-03-12T17:33:07.467Z,9.40
2023-03-12T17:35:35.440Z,9.38
2023-03-12T17:38:03.373Z,9.37
2023-03-12T17:40:31.297Z,9.39
2023-03-12T17:42:59.206Z,9.38
2023-03-12T17:45:27.250Z,9.34
2023-03-12T17:47:56.532Z,9.33
2023-03-12T17:50:24.508Z,9.32
2023-03-12T17:52:52.450Z,9.29
2023-03-12T17:55:20.399Z,9.35
2023-03-12T17:57:48.344Z,9.24
2023-03-12T18:00:17.688Z,9.27
2023-03-12T18:02:45.678Z,9.24
2023-03-12T18:05:15.069Z,9.24
2023-03-12T18:07:43.054Z,9.24
2023-03-12T18:10:12.184Z,9.25
2023-03-12T18:12:40.383Z,9.21
2023-03-12T18:15:09.099Z,9.19
2023-03-12T18:17:37.055Z,9.25
2023-03-12T18:20:09.717Z,9.22
2023-03-12T18:22:39.148Z,9.20
2023-03-12T18:25:08.614Z,9.16
2023-03-12T18:27:36.530Z,9.17
2023-03-12T18:30:04.717Z,9.20
2023-03-12T18:32:34.325Z,9.18
2023-03-12T18:35:02.390Z,9.14
2023-03-12T18:37:30.318Z,9.15
2023-03-12T18:39:59.820Z,9.19
2023-03-12T18:42:27.786Z,9.18
2023-03-12T18:44:55.712Z,9.22
2023-03-12T18:47:23.868Z,9.22
2023-03-12T18:49:55.091Z,9.18
2023-03-12T18:52:23.152Z,9.17
2023-03-12T18:54:51.128Z,9.12
2023-03-12T18:57:20.438Z,9.18
2023-03-12T18:59:48.995Z,9.14
2023-03-12T19:02:16.917Z,9.09
2023-03-12T19:04:44.840Z,9.08
2023-03-12T19:07:12.810Z,9.08
2023-03-12T19:09:40.722Z,9.14
2023-03-12T19:12:08.940Z,9.13
2023-03-12T19:14:38.296Z,9.08
2023-03-12T19:17:06.250Z,8.99
2023-03-12T19:19:34.218Z,9.07
2023-03-12T19:22:02.170Z,9.07
2023-03-12T19:24:30.131Z,9.11
2023-03-12T19:26:58.114Z,9.09
2023-03-12T19:29:26.171Z,9.12
2023-03-12T19:31:55.510Z,9.12
2023-03-12T19:34:23.567Z,9.08
2023-03-12T19:36:51.511Z,9.15
2023-03-12T19:39:21.378Z,9.10
2023-03-12T19:41:49.590Z,9.11
2023-03-12T19:44:17.543Z,9.11
2023-03-12T19:46:45.500Z,9.08
2023-03-12T19:49:14.757Z,9.06
2023-03-12T19:51:42.727Z,9.09
2023-03-12T19:54:10.647Z,9.11
2023-03-12T19:56:38.593Z,9.08
2023-03-12T19:59:06.488Z,9.08
2023-03-12T20:01:34.549Z,9.07
2023-03-12T20:04:04.670Z,9.08
2023-03-12T20:06:34.031Z,9.11
2023-03-12T20:09:02.039Z,9.11
2023-03-12T20:14:21.562Z,9.10
2023-03-12T20:16:49.487Z,9.09
2023-03-12T20:19:17.621Z,9.09
2023-03-12T20:21:48.276Z,8.97
2023-03-12T20:24:16.378Z,9.02
2023-03-12T20:26:45.335Z,8.99
2023-03-12T20:29:13.284Z,8.95
2023-03-12T20:31:43.306Z,8.91
2023-03-12T20:34:11.284Z,8.83
2023-03-12T20:36:39.258Z,8.77
2023-03-12T20:39:08.530Z,8.70
2023-03-12T20:41:36.462Z,8.64
2023-03-12T20:44:04.427Z,8.57
2023-03-12T20:46:32.334Z,8.43
2023-03-12T20:49:00.304Z,8.42
2023-03-12T20:51:28.228Z,8.37
2023-03-12T20:53:56.208Z,8.26
2023-03-12T20:56:25.543Z,8.27
2023-03-12T20:58:53.872Z,8.24
2023-03-12T21:01:21.892Z,8.21
2023-03-12T21:03:49.883Z,8.17
2023-03-12T21:06:17.856Z,8.11
2023-03-12T21:08:45.829Z,8.11
2023-03-12T21:11:13.727Z,8.08
2023-03-12T21:13:43.070Z,8.07
2023-03-12T21:16:11.742Z,8.02
2023-03-12T21:18:39.668Z,8.09
2023-03-12T21:21:08.887Z,8.08
2023-03-12T21:23:36.952Z,8.09
2023-03-12T21:26:08.941Z,8.10
2023-03-12T21:28:37.296Z,8.15
2023-03-12T21:31:07.410Z,8.23
2023-03-12T21:33:35.485Z,8.25
2023-03-12T21:36:05.382Z,8.26
2023-03-12T21:38:33.311Z,8.27
2023-03-12T21:41:06.067Z,8.21
2023-03-12T21:43:33.979Z,8.26
2023-03-12T21:46:06.626Z,8.22
2023-03-12T21:48:34.666Z,8.20
2023-03-12T21:51:03.648Z,8.19
2023-03-12T21:53:31.544Z,8.22
2023-03-12T21:55:59.795Z,8.23
2023-03-12T21:58:28.059Z,8.25
2023-03-12T22:01:03.845Z,8.21
2023-03-12T22:03:33.126Z,8.22
2023-03-12T22:06:01.055Z,8.18
2023-03-12T22:08:29.003Z,8.11
2023-03-12T22:10:56.965Z,8.17
2023-03-12T22:13:24.967Z,8.17
2023-03-12T22:15:56.149Z,8.14
2023-03-12T22:18:24.189Z,8.14
2023-03-12T22:20:53.821Z,8.08
2023-03-12T22:23:23.369Z,8.06
2023-03-12T22:25:51.335Z,7.97
2023-03-12T22:28:19.330Z,7.90
2023-03-12T22:30:47.267Z,7.77
2023-03-12T22:33:15.330Z,7.62
2023-03-12T22:35:46.365Z,7.37
2023-03-12T22:38:15.728Z,7.22
2023-03-12T22:40:43.711Z,7.11
2023-03-12T22:43:11.691Z,7.04
2023-03-12T22:45:39.675Z,7.00
2023-03-12T22:48:07.746Z,6.81
2023-03-12T22:50:35.698Z,6.70
2023-03-12T22:53:03.638Z,6.65
2023-03-12T22:55:33.963Z,6.59
2023-03-12T22:58:01.909Z,6.55
2023-03-12T23:00:29.811Z,6.48
2023-03-12T23:02:57.906Z,6.37
2023-03-12T23:05:25.854Z,6.37
2023-03-12T23:07:53.805Z,6.29
2023-03-12T23:10:21.735Z,6.26
2023-03-12T23:12:51.024Z,6.19
2023-03-12T23:15:21.080Z,6.16
2023-03-12T23:17:50.571Z,6.12
2023-03-12T23:20:18.741Z,6.11
2023-03-12T23:22:46.694Z,6.08
2023-03-12T23:25:14.610Z,6.04
2023-03-12T23:27:42.562Z,6.04
2023-03-12T23:30:13.796Z,5.92
2023-03-12T23:32:41.778Z,5.92
2023-03-12T23:35:10.156Z,5.89
2023-03-12T23:37:38.183Z,5.84
2023-03-12T23:40:07.343Z,5.81
2023-03-12T23:42:35.282Z,5.79
2023-03-12T23:45:03.222Z,5.77
2023-03-12T23:47:32.539Z,5.77
2023-03-12T23:50:00.470Z,5.77
2023-03-12T23:52:28.432Z,5.70
2023-03-12T23:54:56.326Z,5.72
2023-03-12T23:57:24.308Z,5.71
2023-03-12T23:59:52.215Z,5.72
